CFA545 KCHS-KCAE
Flight info
| Callsign | CFA545 |
|---|---|
| Flight time | 0h 21m |
| Altitude | 11000 |
| Route | MLTRE3 VANNC |
| Aircraft | B739/M-V/N |
Departure
| Time | 2026-04-21 00:02 |
|---|---|
| Airport | Charleston International Airport (KCHS) |
Arrival
| Time | 2026-04-21 00:23 |
|---|---|
| Airport | Columbia Metropolitan Airport (KCAE) |
| Time | Latitude | Longitude | Altitude | Speed | Heading |
|---|---|---|---|---|---|
| 2026-04-20 23:40 | 32.88598 | -80.03563 | 37 ft | 0 kts | 183° |
| 2026-04-20 23:54 | 32.88607 | -80.03562 | 37 ft | 2 kts | 183° |
| 2026-04-20 23:54 | 32.88623 | -80.03561 | 36 ft | 2 kts | 184° |
| 2026-04-20 23:54 | 32.88639 | -80.03557 | 35 ft | 2 kts | 220° |
| 2026-04-20 23:55 | 32.88647 | -80.03540 | 34 ft | 2 kts | 276° |
| 2026-04-20 23:55 | 32.88641 | -80.03522 | 35 ft | 2 kts | 310° |
| 2026-04-20 23:55 | 32.88628 | -80.03510 | 33 ft | 2 kts | 322° |
| 2026-04-20 23:55 | 32.88621 | -80.03504 | 37 ft | 0 kts | 322° |
| 2026-04-20 23:56 | 32.88624 | -80.03506 | 33 ft | 0 kts | 322° |
| 2026-04-20 23:58 | 32.88638 | -80.03521 | 36 ft | 10 kts | 310° |
| 2026-04-20 23:58 | 32.88679 | -80.03629 | 37 ft | 16 kts | 314° |
| 2026-04-20 23:58 | 32.88790 | -80.03639 | 37 ft | 17 kts | 12° |
| 2026-04-20 23:58 | 32.88901 | -80.03618 | 41 ft | 16 kts | 6° |
| 2026-04-20 23:59 | 32.88991 | -80.03604 | 44 ft | 0 kts | 10° |
| 2026-04-21 00:00 | 32.88995 | -80.03603 | 44 ft | 2 kts | 12° |
| 2026-04-21 00:00 | 32.89050 | -80.03543 | 45 ft | 20 kts | 53° |
| 2026-04-21 00:00 | 32.89135 | -80.03408 | 44 ft | 20 kts | 53° |
| 2026-04-21 00:00 | 32.89177 | -80.03332 | 44 ft | 0 kts | 57° |
| 2026-04-21 00:01 | 32.89179 | -80.03329 | 44 ft | 0 kts | 57° |
| 2026-04-21 00:01 | 32.89184 | -80.03318 | 43 ft | 6 kts | 57° |
| 2026-04-21 00:01 | 32.89230 | -80.03263 | 42 ft | 11 kts | 16° |
| 2026-04-21 00:01 | 32.89298 | -80.03293 | 42 ft | 0 kts | 327° |
| 2026-04-21 00:02 | 32.89309 | -80.03301 | 42 ft | 17 kts | 327° |
| 2026-04-21 00:02 | 32.89664 | -80.03572 | 47 ft | 103 kts | 327° |
| 2026-04-21 00:02 | 32.90455 | -80.04167 | 107 ft | 162 kts | 326° |
| 2026-04-21 00:02 | 32.91433 | -80.04857 | 852 ft | 159 kts | 326° |
| 2026-04-21 00:03 | 32.92350 | -80.05603 | 1572 ft | 168 kts | 330° |
| 2026-04-21 00:03 | 32.93549 | -80.06234 | 1965 ft | 206 kts | 337° |
| 2026-04-21 00:03 | 32.94987 | -80.06914 | 2351 ft | 234 kts | 338° |
| 2026-04-21 00:03 | 32.96570 | -80.07655 | 2952 ft | 251 kts | 338° |
| 2026-04-21 00:04 | 32.98204 | -80.08425 | 3981 ft | 252 kts | 338° |
| 2026-04-21 00:04 | 32.99824 | -80.09191 | 5258 ft | 248 kts | 337° |
| 2026-04-21 00:04 | 33.01409 | -80.09946 | 6458 ft | 249 kts | 336° |
| 2026-04-21 00:04 | 33.03046 | -80.10730 | 7364 ft | 258 kts | 336° |
| 2026-04-21 00:05 | 33.04701 | -80.11525 | 7811 ft | 256 kts | 336° |
| 2026-04-21 00:05 | 33.06338 | -80.12312 | 8255 ft | 253 kts | 336° |
| 2026-04-21 00:05 | 33.07967 | -80.13098 | 8636 ft | 252 kts | 336° |
| 2026-04-21 00:05 | 33.09592 | -80.13883 | 9037 ft | 252 kts | 336° |
| 2026-04-21 00:06 | 33.11217 | -80.14669 | 9434 ft | 251 kts | 336° |
| 2026-04-21 00:06 | 33.12835 | -80.15453 | 9842 ft | 250 kts | 336° |
| 2026-04-21 00:06 | 33.14464 | -80.16242 | 10238 ft | 261 kts | 336° |
| 2026-04-21 00:06 | 33.16224 | -80.17097 | 10613 ft | 285 kts | 337° |
| 2026-04-21 00:07 | 33.18141 | -80.18027 | 11007 ft | 308 kts | 337° |
| 2026-04-21 00:07 | 33.20199 | -80.19027 | 11395 ft | 329 kts | 337° |
| 2026-04-21 00:07 | 33.22381 | -80.20087 | 11789 ft | 346 kts | 336° |
| 2026-04-21 00:07 | 33.24664 | -80.21196 | 12006 ft | 359 kts | 336° |
| 2026-04-21 00:08 | 33.26970 | -80.22315 | 12006 ft | 363 kts | 336° |
| 2026-04-21 00:08 | 33.29311 | -80.23453 | 12002 ft | 362 kts | 336° |
| 2026-04-21 00:08 | 33.31649 | -80.24591 | 12005 ft | 363 kts | 336° |
| 2026-04-21 00:08 | 33.33848 | -80.26040 | 12001 ft | 363 kts | 321° |
| 2026-04-21 00:09 | 33.35622 | -80.28190 | 12007 ft | 363 kts | 311° |
| 2026-04-21 00:09 | 33.37255 | -80.30505 | 12003 ft | 364 kts | 311° |
| 2026-04-21 00:09 | 33.38882 | -80.32825 | 12001 ft | 364 kts | 311° |
| 2026-04-21 00:09 | 33.40524 | -80.35150 | 12005 ft | 364 kts | 311° |
| 2026-04-21 00:10 | 33.42149 | -80.37433 | 12005 ft | 364 kts | 311° |
| 2026-04-21 00:10 | 33.43795 | -80.39733 | 12001 ft | 364 kts | 311° |
| 2026-04-21 00:10 | 33.45446 | -80.42034 | 12007 ft | 363 kts | 311° |
| 2026-04-21 00:10 | 33.47077 | -80.44307 | 11995 ft | 354 kts | 311° |
| 2026-04-21 00:11 | 33.48742 | -80.46403 | 11975 ft | 343 kts | 319° |
| 2026-04-21 00:11 | 33.50559 | -80.48236 | 11988 ft | 339 kts | 321° |
| 2026-04-21 00:11 | 33.52393 | -80.49996 | 11989 ft | 337 kts | 322° |
| 2026-04-21 00:11 | 33.54236 | -80.51749 | 11639 ft | 339 kts | 322° |
| 2026-04-21 00:12 | 33.56049 | -80.53471 | 11217 ft | 324 kts | 322° |
| 2026-04-21 00:12 | 33.57749 | -80.55087 | 10706 ft | 307 kts | 322° |
| 2026-04-21 00:12 | 33.59382 | -80.56641 | 10219 ft | 293 kts | 321° |
| 2026-04-21 00:12 | 33.60963 | -80.58114 | 9691 ft | 282 kts | 322° |
| 2026-04-21 00:13 | 33.62499 | -80.59522 | 9162 ft | 273 kts | 322° |
| 2026-04-21 00:13 | 33.63990 | -80.60885 | 8646 ft | 266 kts | 322° |
| 2026-04-21 00:13 | 33.65446 | -80.62216 | 8134 ft | 260 kts | 322° |
| 2026-04-21 00:13 | 33.66902 | -80.63478 | 7634 ft | 256 kts | 330° |
| 2026-04-21 00:14 | 33.68593 | -80.64085 | 7134 ft | 255 kts | 349° |
| 2026-04-21 00:14 | 33.70348 | -80.64322 | 6666 ft | 252 kts | 352° |
| 2026-04-21 00:14 | 33.72086 | -80.64521 | 6142 ft | 250 kts | 352° |
| 2026-04-21 00:14 | 33.73813 | -80.64750 | 5626 ft | 247 kts | 345° |
| 2026-04-21 00:15 | 33.75307 | -80.65634 | 5122 ft | 241 kts | 318° |
| 2026-04-21 00:15 | 33.76456 | -80.67009 | 4828 ft | 226 kts | 313° |
| 2026-04-21 00:15 | 33.77523 | -80.68386 | 4541 ft | 224 kts | 312° |
| 2026-04-21 00:15 | 33.78584 | -80.69763 | 4226 ft | 223 kts | 312° |
| 2026-04-21 00:16 | 33.79622 | -80.71107 | 3917 ft | 216 kts | 312° |
| 2026-04-21 00:16 | 33.80298 | -80.71979 | 3707 ft | 212 kts | 312° |
| 2026-04-21 00:16 | 33.81292 | -80.73255 | 3406 ft | 207 kts | 312° |
| 2026-04-21 00:16 | 33.82275 | -80.74509 | 3093 ft | 206 kts | 312° |
| 2026-04-21 00:17 | 33.83255 | -80.75755 | 2792 ft | 205 kts | 312° |
| 2026-04-21 00:17 | 33.84235 | -80.77003 | 2485 ft | 205 kts | 312° |
| 2026-04-21 00:17 | 33.85534 | -80.78653 | 2219 ft | 206 kts | 312° |
| 2026-04-21 00:17 | 33.86201 | -80.79505 | 2204 ft | 207 kts | 312° |
| 2026-04-21 00:18 | 33.87123 | -80.80814 | 2167 ft | 203 kts | 298° |
| 2026-04-21 00:18 | 33.87563 | -80.82412 | 2182 ft | 202 kts | 284° |
| 2026-04-21 00:18 | 33.87943 | -80.84021 | 2176 ft | 202 kts | 285° |
| 2026-04-21 00:18 | 33.88323 | -80.85658 | 2175 ft | 203 kts | 284° |
| 2026-04-21 00:19 | 33.88685 | -80.87298 | 2179 ft | 203 kts | 284° |
| 2026-04-21 00:19 | 33.89040 | -80.88937 | 2175 ft | 203 kts | 284° |
| 2026-04-21 00:19 | 33.89395 | -80.90585 | 2173 ft | 203 kts | 284° |
| 2026-04-21 00:19 | 33.89750 | -80.92233 | 2198 ft | 203 kts | 284° |
| 2026-04-21 00:20 | 33.90104 | -80.93877 | 2203 ft | 202 kts | 284° |
| 2026-04-21 00:20 | 33.90458 | -80.95514 | 2198 ft | 202 kts | 284° |
| 2026-04-21 00:20 | 33.90810 | -80.97143 | 2192 ft | 199 kts | 284° |
| 2026-04-21 00:20 | 33.91148 | -80.98707 | 2191 ft | 188 kts | 283° |
| 2026-04-21 00:21 | 33.91466 | -81.00180 | 2019 ft | 180 kts | 283° |
| 2026-04-21 00:21 | 33.91787 | -81.01664 | 1782 ft | 181 kts | 283° |
| 2026-04-21 00:21 | 33.92102 | -81.03118 | 1547 ft | 175 kts | 284° |
| 2026-04-21 00:21 | 33.92387 | -81.04433 | 1330 ft | 157 kts | 284° |
| 2026-04-21 00:22 | 33.92648 | -81.05636 | 1121 ft | 141 kts | 284° |
| 2026-04-21 00:22 | 33.92881 | -81.06710 | 950 ft | 129 kts | 284° |
| 2026-04-21 00:22 | 33.93112 | -81.07783 | 782 ft | 133 kts | 283° |
| 2026-04-21 00:22 | 33.93329 | -81.08853 | 629 ft | 129 kts | 283° |
| 2026-04-21 00:23 | 33.93565 | -81.09908 | 462 ft | 133 kts | 285° |
| 2026-04-21 00:23 | 33.93811 | -81.10985 | 293 ft | 132 kts | 285° |
| 2026-04-21 00:23 | 33.94017 | -81.11946 | 227 ft | 94 kts | 284° |
| 2026-04-21 00:23 | 33.94132 | -81.12466 | 228 ft | 39 kts | 284° |
| 2026-04-21 00:24 | 33.94179 | -81.12682 | 227 ft | 23 kts | 284° |
| 2026-04-21 00:24 | 33.94219 | -81.12866 | 228 ft | 22 kts | 285° |
| 2026-04-21 00:24 | 33.94278 | -81.13034 | 227 ft | 18 kts | 304° |
| 2026-04-21 00:24 | 33.94359 | -81.13146 | 229 ft | 17 kts | 315° |
| 2026-04-21 00:25 | 33.94436 | -81.13237 | 227 ft | 12 kts | 316° |
| 2026-04-21 00:25 | 33.94495 | -81.13217 | 227 ft | 7 kts | 86° |
| 2026-04-21 00:25 | 33.94483 | -81.13156 | 227 ft | 7 kts | 104° |
| 2026-04-21 00:25 | 33.94467 | -81.13084 | 229 ft | 15 kts | 105° |
| 2026-04-21 00:26 | 33.94436 | -81.12947 | 227 ft | 18 kts | 105° |
| 2026-04-21 00:26 | 33.94407 | -81.12821 | 227 ft | 15 kts | 105° |
| 2026-04-21 00:26 | 33.94415 | -81.12722 | 229 ft | 8 kts | 63° |
| 2026-04-21 00:26 | 33.94436 | -81.12674 | 227 ft | 6 kts | 61° |
| 2026-04-21 00:27 | 33.94461 | -81.12632 | 227 ft | 6 kts | 52° |
| 2026-04-21 00:27 | 33.94474 | -81.12611 | 227 ft | 0 kts | 53° |